South Chesterfield, Massachusetts
Current Conditions -  °F | °C
As of 7:53 PM on Saturday 22 Nov 2014 (Local Time) from KBAF Reporting Station
Few Clouds Few Clouds  
Wind Chill: 31°   Ceiling: Unl
Heat Index: 39°   Visibility: 10mi
Dew Point: 12°   Wind: 13mph
Humidity: 33%   Direction: 180°S
Pressure: 30.1"   Gusts: NA
Location:  42.4143°N, 72.7787°W
Report Text: KBAF 230053Z 18011KT 10SM FEW110 04/M11 A3010 RMK AO2 SLP199 T00391111
Loading
Personal Weather Stations






























Interactive Weather Map New forecast layout! Learn more

10-Day Weather Forecast

Advertisements
Track Severe Weather on mobile